VIS7854 VIDP-VILH
Flight info
| Callsign | VIS7854 |
|---|---|
| Flight time | 1h 16m |
| Altitude | 39000 |
| Route | DCT SP W39 LELAX DCT 3319N07802E/N0472F380 DCT 3400N07739E 340504N0773438E 340824N0773336E 3411N07729E 340850N0772760E DCT 340720N0772970E DCT |
| Aircraft | B748/H-SDE3FGHIM1M2RWXYZ/LB1 |
Departure
| Time | 2026-04-12 10:31 |
|---|---|
| Airport | Indira Gandhi International Airport (VIDP) |
Arrival
| Time | 2026-04-12 11:48 |
|---|---|
| Airport | Leh Kushok Bakula Rimpochee Airport (VILH) |
| Time | Latitude | Longitude | Altitude | Speed | Heading |
|---|---|---|---|---|---|
| 2026-04-12 09:31 | 28.55766 | 77.08051 | 746 ft | 0 kts | 329° |
| 2026-04-12 10:12 | 28.55767 | 77.08050 | 773 ft | 1 kts | 329° |
| 2026-04-12 10:12 | 28.55759 | 77.08056 | 742 ft | 3 kts | 344° |
| 2026-04-12 10:12 | 28.55739 | 77.08059 | 742 ft | 3 kts | 27° |
| 2026-04-12 10:12 | 28.55724 | 77.08047 | 742 ft | 0 kts | 60° |
| 2026-04-12 10:13 | 28.55725 | 77.08048 | 742 ft | 0 kts | 61° |
| 2026-04-12 10:14 | 28.55716 | 77.08033 | 742 ft | 3 kts | 32° |
| 2026-04-12 10:14 | 28.55701 | 77.08018 | 742 ft | 3 kts | 65° |
| 2026-04-12 10:15 | 28.55689 | 77.07998 | 742 ft | 3 kts | 21° |
| 2026-04-12 10:15 | 28.55668 | 77.07994 | 743 ft | 3 kts | 337° |
| 2026-04-12 10:15 | 28.55651 | 77.08007 | 743 ft | 3 kts | 294° |
| 2026-04-12 10:15 | 28.55645 | 77.08029 | 743 ft | 3 kts | 262° |
| 2026-04-12 10:16 | 28.55649 | 77.08046 | 743 ft | 0 kts | 251° |
| 2026-04-12 10:16 | 28.55649 | 77.08045 | 743 ft | 0 kts | 251° |
| 2026-04-12 10:16 | 28.55648 | 77.08044 | 743 ft | 0 kts | 251° |
| 2026-04-12 10:17 | 28.55648 | 77.08043 | 743 ft | 0 kts | 251° |
| 2026-04-12 10:17 | 28.55648 | 77.08042 | 743 ft | 0 kts | 251° |
| 2026-04-12 10:17 | 28.55648 | 77.08041 | 743 ft | 0 kts | 251° |
| 2026-04-12 10:18 | 28.55652 | 77.08056 | 743 ft | 5 kts | 252° |
| 2026-04-12 10:18 | 28.55656 | 77.08070 | 743 ft | 0 kts | 253° |
| 2026-04-12 10:19 | 28.55655 | 77.08067 | 743 ft | 0 kts | 253° |
| 2026-04-12 10:19 | 28.55654 | 77.08064 | 743 ft | 0 kts | 253° |
| 2026-04-12 10:19 | 28.55654 | 77.08062 | 743 ft | 0 kts | 252° |
| 2026-04-12 10:19 | 28.55653 | 77.08060 | 748 ft | 0 kts | 252° |
| 2026-04-12 10:20 | 28.55652 | 77.08058 | 748 ft | 0 kts | 252° |
| 2026-04-12 10:20 | 28.55652 | 77.08056 | 748 ft | 0 kts | 252° |
| 2026-04-12 10:20 | 28.55652 | 77.08055 | 748 ft | 0 kts | 252° |
| 2026-04-12 10:20 | 28.55652 | 77.08056 | 748 ft | 2 kts | 252° |
| 2026-04-12 10:21 | 28.55655 | 77.08065 | 748 ft | 0 kts | 253° |
| 2026-04-12 10:21 | 28.55654 | 77.08065 | 748 ft | 0 kts | 253° |
| 2026-04-12 10:21 | 28.55650 | 77.08049 | 748 ft | 15 kts | 251° |
| 2026-04-12 10:21 | 28.55506 | 77.07774 | 743 ft | 43 kts | 218° |
| 2026-04-12 10:22 | 28.55279 | 77.07675 | 748 ft | 31 kts | 198° |
| 2026-04-12 10:22 | 28.55087 | 77.07644 | 748 ft | 21 kts | 165° |
| 2026-04-12 10:22 | 28.55045 | 77.07724 | 749 ft | 0 kts | 101° |
| 2026-04-12 10:26 | 28.55045 | 77.07725 | 752 ft | 1 kts | 101° |
| 2026-04-12 10:26 | 28.55026 | 77.07837 | 750 ft | 31 kts | 103° |
| 2026-04-12 10:26 | 28.54938 | 77.08216 | 753 ft | 68 kts | 104° |
| 2026-04-12 10:27 | 28.54806 | 77.08808 | 765 ft | 64 kts | 103° |
| 2026-04-12 10:27 | 28.54746 | 77.09064 | 769 ft | 8 kts | 108° |
| 2026-04-12 10:27 | 28.54718 | 77.09168 | 770 ft | 34 kts | 106° |
| 2026-04-12 10:27 | 28.54621 | 77.09587 | 775 ft | 74 kts | 104° |
| 2026-04-12 10:28 | 28.54482 | 77.10184 | 784 ft | 56 kts | 103° |
| 2026-04-12 10:28 | 28.54392 | 77.10526 | 789 ft | 41 kts | 101° |
| 2026-04-12 10:28 | 28.54336 | 77.10831 | 792 ft | 37 kts | 105° |
| 2026-04-12 10:28 | 28.54288 | 77.11099 | 795 ft | 31 kts | 97° |
| 2026-04-12 10:29 | 28.54196 | 77.11183 | 796 ft | 14 kts | 184° |
| 2026-04-12 10:29 | 28.54160 | 77.11176 | 795 ft | 0 kts | 193° |
| 2026-04-12 10:29 | 28.54159 | 77.11176 | 795 ft | 0 kts | 193° |
| 2026-04-12 10:29 | 28.54157 | 77.11175 | 795 ft | 0 kts | 194° |
| 2026-04-12 10:30 | 28.54153 | 77.11174 | 795 ft | 1 kts | 195° |
| 2026-04-12 10:30 | 28.54141 | 77.11170 | 795 ft | 5 kts | 197° |
| 2026-04-12 10:30 | 28.54105 | 77.11144 | 795 ft | 7 kts | 227° |
| 2026-04-12 10:30 | 28.54099 | 77.11097 | 794 ft | 7 kts | 281° |
| 2026-04-12 10:31 | 28.54161 | 77.10808 | 792 ft | 85 kts | 283° |
| 2026-04-12 10:31 | 28.54368 | 77.09798 | 782 ft | 174 kts | 284° |
| 2026-04-12 10:31 | 28.54694 | 77.08217 | 983 ft | 231 kts | 282° |
| 2026-04-12 10:31 | 28.55066 | 77.06366 | 2012 ft | 247 kts | 283° |
| 2026-04-12 10:32 | 28.55398 | 77.04393 | 3084 ft | 262 kts | 281° |
| 2026-04-12 10:32 | 28.55718 | 77.02267 | 3711 ft | 282 kts | 281° |
| 2026-04-12 10:32 | 28.56052 | 77.00044 | 4459 ft | 294 kts | 281° |
| 2026-04-12 10:32 | 28.56636 | 76.97859 | 5571 ft | 277 kts | 313° |
| 2026-04-12 10:33 | 28.57981 | 76.96767 | 7835 ft | 217 kts | 336° |
| 2026-04-12 10:33 | 28.59436 | 76.96238 | 8681 ft | 234 kts | 1° |
| 2026-04-12 10:33 | 28.61171 | 76.96325 | 8940 ft | 264 kts | 358° |
| 2026-04-12 10:33 | 28.63133 | 76.96455 | 8963 ft | 302 kts | 358° |
| 2026-04-12 10:34 | 28.65267 | 76.96052 | 9005 ft | 325 kts | 334° |
| 2026-04-12 10:34 | 28.67212 | 76.94604 | 9008 ft | 348 kts | 314° |
| 2026-04-12 10:34 | 28.68695 | 76.92332 | 9010 ft | 368 kts | 297° |
| 2026-04-12 10:34 | 28.69641 | 76.89557 | 9007 ft | 385 kts | 288° |
| 2026-04-12 10:35 | 28.70352 | 76.86607 | 9002 ft | 397 kts | 287° |
| 2026-04-12 10:35 | 28.71517 | 76.83728 | 8982 ft | 406 kts | 303° |
| 2026-04-12 10:35 | 28.73208 | 76.81120 | 8991 ft | 412 kts | 309° |
| 2026-04-12 10:35 | 28.75097 | 76.78634 | 8972 ft | 417 kts | 311° |
| 2026-04-12 10:36 | 28.77073 | 76.76189 | 8995 ft | 421 kts | 313° |
| 2026-04-12 10:36 | 28.79089 | 76.73750 | 8981 ft | 423 kts | 313° |
| 2026-04-12 10:36 | 28.81121 | 76.71316 | 8976 ft | 425 kts | 313° |
| 2026-04-12 10:36 | 28.83166 | 76.68876 | 8987 ft | 426 kts | 313° |
| 2026-04-12 10:37 | 28.85194 | 76.66460 | 8975 ft | 428 kts | 313° |
| 2026-04-12 10:37 | 28.87255 | 76.64005 | 8991 ft | 428 kts | 313° |
| 2026-04-12 10:37 | 28.89311 | 76.61553 | 8980 ft | 428 kts | 313° |
| 2026-04-12 10:37 | 28.91371 | 76.59099 | 8987 ft | 429 kts | 313° |
| 2026-04-12 10:38 | 28.93436 | 76.56640 | 8980 ft | 429 kts | 313° |
| 2026-04-12 10:38 | 28.95501 | 76.54177 | 8975 ft | 429 kts | 313° |
| 2026-04-12 10:38 | 28.97564 | 76.51711 | 8980 ft | 429 kts | 313° |
| 2026-04-12 10:38 | 28.99626 | 76.49247 | 8966 ft | 429 kts | 313° |
| 2026-04-12 10:39 | 29.01659 | 76.46816 | 8970 ft | 429 kts | 313° |
| 2026-04-12 10:39 | 29.03718 | 76.44354 | 8969 ft | 429 kts | 313° |
| 2026-04-12 10:39 | 29.05778 | 76.41887 | 8969 ft | 429 kts | 313° |
| 2026-04-12 10:39 | 29.07837 | 76.39423 | 8973 ft | 429 kts | 313° |
| 2026-04-12 10:40 | 29.09900 | 76.36956 | 8967 ft | 428 kts | 313° |
| 2026-04-12 10:40 | 29.11957 | 76.34493 | 8969 ft | 428 kts | 313° |
| 2026-04-12 10:40 | 29.14012 | 76.32031 | 8974 ft | 428 kts | 313° |
| 2026-04-12 10:40 | 29.16074 | 76.29566 | 8974 ft | 429 kts | 313° |
| 2026-04-12 10:41 | 29.18138 | 76.27102 | 8979 ft | 429 kts | 313° |
| 2026-04-12 10:41 | 29.20172 | 76.24675 | 8976 ft | 428 kts | 313° |
| 2026-04-12 10:41 | 29.22236 | 76.22213 | 8975 ft | 428 kts | 313° |
| 2026-04-12 10:41 | 29.24295 | 76.19755 | 8963 ft | 428 kts | 313° |
| 2026-04-12 10:42 | 29.26359 | 76.17288 | 8966 ft | 429 kts | 313° |
| 2026-04-12 10:42 | 29.28422 | 76.14823 | 8967 ft | 429 kts | 313° |
| 2026-04-12 10:42 | 29.30483 | 76.12362 | 8958 ft | 429 kts | 313° |
| 2026-04-12 10:42 | 29.32553 | 76.09899 | 8961 ft | 429 kts | 313° |
| 2026-04-12 10:43 | 29.36700 | 76.04972 | 8963 ft | 429 kts | 313° |
| 2026-04-12 10:43 | 29.38746 | 76.02543 | 8962 ft | 429 kts | 313° |
| 2026-04-12 10:43 | 29.40820 | 76.00084 | 8964 ft | 429 kts | 313° |
| 2026-04-12 10:44 | 29.42899 | 75.97620 | 8962 ft | 429 kts | 313° |
| 2026-04-12 10:44 | 29.44971 | 75.95160 | 8970 ft | 429 kts | 313° |
| 2026-04-12 10:44 | 29.47045 | 75.92700 | 8964 ft | 429 kts | 313° |
| 2026-04-12 10:44 | 29.49121 | 75.90239 | 8959 ft | 429 kts | 313° |
| 2026-04-12 10:45 | 29.51196 | 75.87781 | 8959 ft | 429 kts | 314° |
| 2026-04-12 10:45 | 29.53270 | 75.85322 | 8959 ft | 429 kts | 314° |
| 2026-04-12 10:45 | 29.55316 | 75.82891 | 8961 ft | 429 kts | 313° |
| 2026-04-12 10:45 | 29.57388 | 75.80433 | 8970 ft | 428 kts | 313° |
| 2026-04-12 10:46 | 29.59464 | 75.77973 | 8948 ft | 428 kts | 313° |
| 2026-04-12 10:46 | 29.61540 | 75.75519 | 8944 ft | 429 kts | 313° |
| 2026-04-12 10:46 | 29.63624 | 75.73065 | 8952 ft | 429 kts | 314° |
| 2026-04-12 10:46 | 29.65704 | 75.70610 | 8953 ft | 429 kts | 314° |
| 2026-04-12 10:47 | 29.67789 | 75.68152 | 8956 ft | 429 kts | 314° |
| 2026-04-12 10:47 | 29.69796 | 75.65787 | 8935 ft | 394 kts | 314° |
| 2026-04-12 10:47 | 29.71613 | 75.63647 | 8929 ft | 353 kts | 313° |
| 2026-04-12 10:47 | 29.73213 | 75.61763 | 8917 ft | 316 kts | 313° |
| 2026-04-12 10:48 | 29.74716 | 75.60000 | 8921 ft | 306 kts | 314° |
| 2026-04-12 10:48 | 29.76195 | 75.58269 | 8931 ft | 302 kts | 314° |
| 2026-04-12 10:48 | 29.77669 | 75.56546 | 8934 ft | 301 kts | 314° |
| 2026-04-12 10:48 | 29.79139 | 75.54827 | 8939 ft | 301 kts | 314° |
| 2026-04-12 10:49 | 29.80609 | 75.53109 | 8938 ft | 301 kts | 314° |
| 2026-04-12 10:49 | 29.82080 | 75.51387 | 8948 ft | 301 kts | 314° |
| 2026-04-12 10:49 | 29.83549 | 75.49666 | 8945 ft | 301 kts | 314° |
| 2026-04-12 10:49 | 29.85049 | 75.47977 | 8946 ft | 302 kts | 321° |
| 2026-04-12 10:50 | 29.86883 | 75.46843 | 8954 ft | 309 kts | 336° |
| 2026-04-12 10:50 | 29.88971 | 75.46036 | 8972 ft | 324 kts | 341° |
| 2026-04-12 10:50 | 29.91191 | 75.45310 | 8954 ft | 338 kts | 342° |
| 2026-04-12 10:50 | 29.93499 | 75.44592 | 8961 ft | 349 kts | 342° |
| 2026-04-12 10:51 | 29.95877 | 75.43862 | 8958 ft | 358 kts | 342° |
| 2026-04-12 10:51 | 29.98312 | 75.43117 | 8958 ft | 365 kts | 342° |
| 2026-04-12 10:51 | 30.00790 | 75.42357 | 8955 ft | 371 kts | 343° |
| 2026-04-12 10:51 | 30.03298 | 75.41583 | 8973 ft | 376 kts | 343° |
| 2026-04-12 10:52 | 30.05840 | 75.40793 | 8962 ft | 380 kts | 343° |
| 2026-04-12 10:52 | 30.08372 | 75.40003 | 8974 ft | 384 kts | 342° |
| 2026-04-12 10:52 | 30.10964 | 75.39192 | 8961 ft | 387 kts | 342° |
| 2026-04-12 10:52 | 30.13566 | 75.38376 | 8972 ft | 389 kts | 342° |
| 2026-04-12 10:53 | 30.16187 | 75.37554 | 8966 ft | 391 kts | 343° |
| 2026-04-12 10:53 | 30.18817 | 75.36727 | 8963 ft | 392 kts | 343° |
| 2026-04-12 10:53 | 30.21454 | 75.35897 | 8966 ft | 393 kts | 343° |
| 2026-04-12 10:53 | 30.24093 | 75.35066 | 8972 ft | 394 kts | 343° |
| 2026-04-12 10:54 | 30.26736 | 75.34233 | 8963 ft | 394 kts | 343° |
| 2026-04-12 10:54 | 30.29344 | 75.33412 | 8967 ft | 394 kts | 343° |
| 2026-04-12 10:54 | 30.31987 | 75.32580 | 8969 ft | 394 kts | 343° |
| 2026-04-12 10:54 | 30.34632 | 75.31747 | 8968 ft | 394 kts | 343° |
| 2026-04-12 10:55 | 30.37282 | 75.30912 | 8973 ft | 394 kts | 343° |
| 2026-04-12 10:55 | 30.39931 | 75.30078 | 8968 ft | 395 kts | 343° |
| 2026-04-12 10:55 | 30.42582 | 75.29244 | 8977 ft | 395 kts | 343° |
| 2026-04-12 10:55 | 30.45236 | 75.28410 | 8972 ft | 396 kts | 343° |
| 2026-04-12 10:56 | 30.47899 | 75.27573 | 8969 ft | 396 kts | 343° |
| 2026-04-12 10:56 | 30.50525 | 75.26747 | 8974 ft | 397 kts | 343° |
| 2026-04-12 10:56 | 30.53191 | 75.25909 | 8974 ft | 397 kts | 343° |
| 2026-04-12 10:56 | 30.55858 | 75.25070 | 8975 ft | 398 kts | 343° |
| 2026-04-12 10:57 | 30.58532 | 75.24230 | 8980 ft | 398 kts | 343° |
| 2026-04-12 10:57 | 30.61202 | 75.23391 | 8987 ft | 398 kts | 343° |
| 2026-04-12 10:57 | 30.63875 | 75.22552 | 8979 ft | 397 kts | 343° |
| 2026-04-12 10:57 | 30.66542 | 75.21714 | 8983 ft | 397 kts | 343° |
| 2026-04-12 10:58 | 30.69210 | 75.20874 | 8979 ft | 397 kts | 343° |
| 2026-04-12 10:58 | 30.71873 | 75.20032 | 8979 ft | 397 kts | 343° |
| 2026-04-12 10:58 | 30.74509 | 75.19194 | 8979 ft | 397 kts | 343° |
| 2026-04-12 10:58 | 30.77177 | 75.18345 | 8980 ft | 398 kts | 343° |
| 2026-04-12 10:59 | 30.79842 | 75.17497 | 8983 ft | 398 kts | 343° |
| 2026-04-12 10:59 | 30.82511 | 75.16648 | 8977 ft | 398 kts | 343° |
| 2026-04-12 10:59 | 30.85174 | 75.15776 | 8983 ft | 396 kts | 340° |
| 2026-04-12 10:59 | 30.87700 | 75.14518 | 8973 ft | 395 kts | 339° |
| 2026-04-12 11:00 | 30.90405 | 75.13919 | 8977 ft | 399 kts | 355° |
| 2026-04-12 11:00 | 30.93180 | 75.14170 | 8978 ft | 403 kts | 9° |
| 2026-04-12 11:00 | 30.95883 | 75.15086 | 8987 ft | 405 kts | 17° |
| 2026-04-12 11:00 | 30.98520 | 75.16254 | 8990 ft | 406 kts | 19° |
| 2026-04-12 11:01 | 31.01101 | 75.17495 | 8994 ft | 407 kts | 20° |
| 2026-04-12 11:01 | 31.03709 | 75.18783 | 8992 ft | 407 kts | 21° |
| 2026-04-12 11:01 | 31.06314 | 75.20083 | 8998 ft | 407 kts | 21° |
| 2026-04-12 11:01 | 31.08922 | 75.21390 | 8992 ft | 408 kts | 21° |
| 2026-04-12 11:02 | 31.11526 | 75.22696 | 8998 ft | 408 kts | 21° |
| 2026-04-12 11:02 | 31.14136 | 75.24005 | 8990 ft | 408 kts | 21° |
| 2026-04-12 11:02 | 31.16740 | 75.25315 | 8991 ft | 410 kts | 21° |
| 2026-04-12 11:02 | 31.19397 | 75.26652 | 8994 ft | 422 kts | 21° |
| 2026-04-12 11:03 | 31.22084 | 75.28002 | 9002 ft | 430 kts | 21° |
| 2026-04-12 11:03 | 31.24859 | 75.29389 | 8997 ft | 436 kts | 21° |
| 2026-04-12 11:03 | 31.27684 | 75.30731 | 8998 ft | 440 kts | 19° |
| 2026-04-12 11:03 | 31.30573 | 75.31936 | 8997 ft | 442 kts | 17° |
| 2026-04-12 11:04 | 31.33492 | 75.33084 | 9005 ft | 444 kts | 16° |
| 2026-04-12 11:04 | 31.36430 | 75.34213 | 9000 ft | 445 kts | 16° |
| 2026-04-12 11:04 | 31.39381 | 75.35336 | 8998 ft | 446 kts | 16° |
| 2026-04-12 11:04 | 31.42335 | 75.36455 | 8995 ft | 447 kts | 16° |
| 2026-04-12 11:05 | 31.45262 | 75.37564 | 8997 ft | 447 kts | 16° |
| 2026-04-12 11:05 | 31.48215 | 75.38683 | 8998 ft | 447 kts | 16° |
| 2026-04-12 11:05 | 31.51178 | 75.39805 | 8996 ft | 448 kts | 16° |
| 2026-04-12 11:05 | 31.54141 | 75.40923 | 9000 ft | 448 kts | 16° |
| 2026-04-12 11:06 | 31.57109 | 75.42039 | 8998 ft | 447 kts | 16° |
| 2026-04-12 11:06 | 31.60076 | 75.43153 | 8996 ft | 448 kts | 16° |
| 2026-04-12 11:06 | 31.63046 | 75.44261 | 8996 ft | 448 kts | 16° |
| 2026-04-12 11:06 | 31.66021 | 75.45365 | 8996 ft | 449 kts | 16° |
| 2026-04-12 11:07 | 31.68998 | 75.46467 | 9002 ft | 449 kts | 16° |
| 2026-04-12 11:07 | 31.71940 | 75.47556 | 8998 ft | 449 kts | 16° |
| 2026-04-12 11:07 | 31.74917 | 75.48660 | 8993 ft | 449 kts | 16° |
| 2026-04-12 11:07 | 31.77893 | 75.49766 | 8991 ft | 449 kts | 16° |
| 2026-04-12 11:08 | 31.80882 | 75.50872 | 8991 ft | 450 kts | 16° |
| 2026-04-12 11:08 | 31.83871 | 75.51964 | 8991 ft | 450 kts | 16° |
| 2026-04-12 11:08 | 31.86859 | 75.53054 | 8994 ft | 450 kts | 16° |
| 2026-04-12 11:08 | 31.89850 | 75.54146 | 8991 ft | 450 kts | 16° |
| 2026-04-12 11:09 | 31.92845 | 75.55236 | 8992 ft | 450 kts | 16° |
| 2026-04-12 11:09 | 31.95839 | 75.56323 | 8989 ft | 451 kts | 16° |
| 2026-04-12 11:09 | 31.98791 | 75.57399 | 8991 ft | 451 kts | 16° |
| 2026-04-12 11:09 | 32.01784 | 75.58493 | 8992 ft | 450 kts | 16° |
| 2026-04-12 11:10 | 32.04781 | 75.59586 | 8990 ft | 450 kts | 16° |
| 2026-04-12 11:10 | 32.07780 | 75.60678 | 8991 ft | 451 kts | 17° |
| 2026-04-12 11:10 | 32.10780 | 75.61750 | 8988 ft | 451 kts | 16° |
| 2026-04-12 11:10 | 32.13787 | 75.62805 | 8989 ft | 452 kts | 16° |
| 2026-04-12 11:11 | 32.16804 | 75.63856 | 8994 ft | 452 kts | 16° |
| 2026-04-12 11:11 | 32.19821 | 75.64904 | 8996 ft | 452 kts | 16° |
| 2026-04-12 11:11 | 32.22867 | 75.65792 | 8994 ft | 452 kts | 7° |
| 2026-04-12 11:11 | 32.25965 | 75.65879 | 8986 ft | 452 kts | 355° |
| 2026-04-12 11:12 | 32.29062 | 75.65275 | 8989 ft | 452 kts | 347° |
| 2026-04-12 11:12 | 32.32104 | 75.64350 | 8992 ft | 451 kts | 344° |
| 2026-04-12 11:12 | 32.35119 | 75.63302 | 8996 ft | 452 kts | 343° |
| 2026-04-12 11:12 | 32.38125 | 75.62203 | 9001 ft | 452 kts | 342° |
| 2026-04-12 11:13 | 32.41125 | 75.61084 | 9002 ft | 453 kts | 342° |
| 2026-04-12 11:13 | 32.44129 | 75.59955 | 9024 ft | 453 kts | 342° |
| 2026-04-12 11:13 | 32.47130 | 75.58824 | 9024 ft | 453 kts | 342° |
| 2026-04-12 11:13 | 32.50139 | 75.57689 | 9022 ft | 453 kts | 342° |
| 2026-04-12 11:14 | 32.53107 | 75.56568 | 9021 ft | 454 kts | 342° |
| 2026-04-12 11:14 | 32.56115 | 75.55432 | 9051 ft | 454 kts | 342° |
| 2026-04-12 11:14 | 32.59059 | 75.54321 | 9684 ft | 440 kts | 342° |
| 2026-04-12 11:14 | 32.61962 | 75.53174 | 9879 ft | 440 kts | 339° |
| 2026-04-12 11:15 | 32.64762 | 75.51671 | 9914 ft | 444 kts | 333° |
| 2026-04-12 11:15 | 32.67501 | 75.49938 | 9932 ft | 447 kts | 330° |
| 2026-04-12 11:15 | 32.70215 | 75.48116 | 9896 ft | 450 kts | 330° |
| 2026-04-12 11:15 | 32.72928 | 75.46253 | 9896 ft | 451 kts | 329° |
| 2026-04-12 11:16 | 32.75608 | 75.44396 | 9930 ft | 452 kts | 329° |
| 2026-04-12 11:16 | 32.78321 | 75.42508 | 9937 ft | 453 kts | 329° |
| 2026-04-12 11:16 | 32.81044 | 75.40607 | 9943 ft | 459 kts | 329° |
| 2026-04-12 11:16 | 32.83907 | 75.38604 | 9939 ft | 498 kts | 329° |
| 2026-04-12 11:17 | 32.86997 | 75.36442 | 9946 ft | 531 kts | 329° |
| 2026-04-12 11:17 | 32.90245 | 75.34166 | 9929 ft | 541 kts | 329° |
| 2026-04-12 11:17 | 32.93398 | 75.31958 | 9911 ft | 509 kts | 329° |
| 2026-04-12 11:17 | 32.96355 | 75.29888 | 9904 ft | 477 kts | 330° |
| 2026-04-12 11:18 | 32.99261 | 75.28272 | 9896 ft | 448 kts | 342° |
| 2026-04-12 11:18 | 33.02218 | 75.27528 | 9923 ft | 424 kts | 355° |
| 2026-04-12 11:18 | 33.05042 | 75.27638 | 9923 ft | 402 kts | 9° |
| 2026-04-12 11:18 | 33.07645 | 75.28600 | 9926 ft | 383 kts | 26° |
| 2026-04-12 11:19 | 33.09788 | 75.30339 | 9925 ft | 366 kts | 44° |
| 2026-04-12 11:19 | 33.11442 | 75.32562 | 9921 ft | 351 kts | 52° |
| 2026-04-12 11:19 | 33.12888 | 75.34927 | 9923 ft | 354 kts | 55° |
| 2026-04-12 11:19 | 33.14276 | 75.37347 | 9969 ft | 354 kts | 56° |
| 2026-04-12 11:20 | 33.15646 | 75.39783 | 9975 ft | 353 kts | 56° |
| 2026-04-12 11:20 | 33.17009 | 75.42224 | 9975 ft | 354 kts | 56° |
| 2026-04-12 11:20 | 33.18369 | 75.44675 | 9983 ft | 357 kts | 56° |
| 2026-04-12 11:20 | 33.19712 | 75.47123 | 9972 ft | 356 kts | 56° |
| 2026-04-12 11:21 | 33.21069 | 75.49602 | 9970 ft | 357 kts | 56° |
| 2026-04-12 11:21 | 33.22430 | 75.52092 | 9985 ft | 357 kts | 56° |
| 2026-04-12 11:21 | 33.23783 | 75.54569 | 10104 ft | 356 kts | 57° |
| 2026-04-12 11:21 | 33.25099 | 75.57034 | 10816 ft | 337 kts | 59° |
| 2026-04-12 11:22 | 33.26225 | 75.59363 | 11960 ft | 320 kts | 60° |
| 2026-04-12 11:22 | 33.27327 | 75.61739 | 12037 ft | 333 kts | 61° |
| 2026-04-12 11:22 | 33.28431 | 75.64176 | 12431 ft | 334 kts | 62° |
| 2026-04-12 11:22 | 33.29436 | 75.66608 | 13042 ft | 315 kts | 84° |
| 2026-04-12 11:23 | 33.29839 | 75.68997 | 14143 ft | 283 kts | 79° |
| 2026-04-12 11:23 | 33.30202 | 75.71344 | 14073 ft | 301 kts | 80° |
| 2026-04-12 11:23 | 33.30598 | 75.73918 | 13880 ft | 325 kts | 80° |
| 2026-04-12 11:23 | 33.31000 | 75.76619 | 14164 ft | 336 kts | 81° |
| 2026-04-12 11:24 | 33.31432 | 75.79500 | 14449 ft | 369 kts | 79° |
| 2026-04-12 11:24 | 33.31987 | 75.82642 | 14704 ft | 402 kts | 76° |
| 2026-04-12 11:24 | 33.32689 | 75.86013 | 15025 ft | 433 kts | 75° |
| 2026-04-12 11:24 | 33.33513 | 75.89564 | 15501 ft | 454 kts | 73° |
| 2026-04-12 11:25 | 33.34436 | 75.93248 | 16294 ft | 469 kts | 72° |
| 2026-04-12 11:25 | 33.35433 | 75.96992 | 17398 ft | 475 kts | 70° |
| 2026-04-12 11:25 | 33.36463 | 76.00686 | 18742 ft | 473 kts | 70° |
| 2026-04-12 11:25 | 33.37496 | 76.04411 | 20106 ft | 470 kts | 70° |
| 2026-04-12 11:26 | 33.38515 | 76.08108 | 21414 ft | 468 kts | 70° |
| 2026-04-12 11:26 | 33.39567 | 76.11882 | 21735 ft | 490 kts | 70° |
| 2026-04-12 11:26 | 33.40625 | 76.15847 | 21933 ft | 508 kts | 71° |
| 2026-04-12 11:26 | 33.41684 | 76.19956 | 22358 ft | 524 kts | 71° |
| 2026-04-12 11:27 | 33.42873 | 76.24107 | 23050 ft | 530 kts | 63° |
| 2026-04-12 11:27 | 33.44564 | 76.28043 | 23685 ft | 535 kts | 55° |
| 2026-04-12 11:27 | 33.46588 | 76.31825 | 24318 ft | 542 kts | 54° |
| 2026-04-12 11:27 | 33.48629 | 76.35544 | 25169 ft | 542 kts | 55° |
| 2026-04-12 11:28 | 33.50633 | 76.39362 | 26263 ft | 538 kts | 56° |
| 2026-04-12 11:28 | 33.52577 | 76.43156 | 27477 ft | 531 kts | 56° |
| 2026-04-12 11:28 | 33.54495 | 76.46923 | 28372 ft | 533 kts | 56° |
| 2026-04-12 11:28 | 33.56430 | 76.50805 | 28361 ft | 552 kts | 56° |
| 2026-04-12 11:29 | 33.58412 | 76.54842 | 27978 ft | 572 kts | 56° |
| 2026-04-12 11:29 | 33.60439 | 76.58981 | 26946 ft | 577 kts | 57° |
| 2026-04-12 11:29 | 33.62466 | 76.63120 | 25985 ft | 570 kts | 57° |
| 2026-04-12 11:29 | 33.64463 | 76.67198 | 25002 ft | 566 kts | 57° |
| 2026-04-12 11:30 | 33.66441 | 76.71209 | 24106 ft | 565 kts | 57° |
| 2026-04-12 11:30 | 33.68454 | 76.75256 | 23128 ft | 564 kts | 57° |
| 2026-04-12 11:30 | 33.70480 | 76.79289 | 22076 ft | 564 kts | 57° |
| 2026-04-12 11:30 | 33.72524 | 76.83311 | 21065 ft | 565 kts | 57° |
| 2026-04-12 11:31 | 33.74557 | 76.87260 | 21067 ft | 545 kts | 56° |
| 2026-04-12 11:31 | 33.76494 | 76.91011 | 21105 ft | 504 kts | 56° |
| 2026-04-12 11:31 | 33.78229 | 76.94400 | 21120 ft | 451 kts | 56° |
| 2026-04-12 11:31 | 33.79788 | 76.97474 | 21108 ft | 412 kts | 56° |
| 2026-04-12 11:32 | 33.81220 | 77.00310 | 21033 ft | 382 kts | 56° |
| 2026-04-12 11:32 | 33.82531 | 77.02936 | 20947 ft | 354 kts | 56° |
| 2026-04-12 11:32 | 33.83748 | 77.05389 | 20883 ft | 342 kts | 56° |
| 2026-04-12 11:32 | 33.84962 | 77.07830 | 20787 ft | 338 kts | 56° |
| 2026-04-12 11:33 | 33.86156 | 77.10234 | 20722 ft | 331 kts | 56° |
| 2026-04-12 11:33 | 33.87330 | 77.12603 | 20683 ft | 330 kts | 56° |
| 2026-04-12 11:33 | 33.88515 | 77.14982 | 20601 ft | 332 kts | 56° |
| 2026-04-12 11:33 | 33.89697 | 77.17362 | 20541 ft | 331 kts | 56° |
| 2026-04-12 11:34 | 33.90875 | 77.19738 | 20476 ft | 331 kts | 57° |
| 2026-04-12 11:34 | 33.92059 | 77.22119 | 20420 ft | 332 kts | 56° |
| 2026-04-12 11:34 | 33.93225 | 77.24468 | 20362 ft | 330 kts | 56° |
| 2026-04-12 11:34 | 33.94395 | 77.26849 | 20303 ft | 331 kts | 56° |
| 2026-04-12 11:35 | 33.95582 | 77.29250 | 19971 ft | 338 kts | 56° |
| 2026-04-12 11:35 | 33.96881 | 77.31649 | 19717 ft | 342 kts | 51° |
| 2026-04-12 11:35 | 33.98295 | 77.33934 | 19708 ft | 339 kts | 48° |
| 2026-04-12 11:35 | 33.99611 | 77.36258 | 19824 ft | 331 kts | 68° |
| 2026-04-12 11:36 | 34.00506 | 77.38735 | 20112 ft | 317 kts | 55° |
| 2026-04-12 11:36 | 34.01653 | 77.41048 | 19820 ft | 327 kts | 48° |
| 2026-04-12 11:36 | 34.03164 | 77.43136 | 19359 ft | 336 kts | 24° |
| 2026-04-12 11:36 | 34.05262 | 77.44287 | 18859 ft | 338 kts | 352° |
| 2026-04-12 11:37 | 34.07655 | 77.44135 | 17864 ft | 362 kts | 342° |
| 2026-04-12 11:37 | 34.10211 | 77.43488 | 17278 ft | 388 kts | 340° |
| 2026-04-12 11:37 | 34.12916 | 77.42555 | 16096 ft | 420 kts | 352° |
| 2026-04-12 11:37 | 34.15812 | 77.42919 | 15583 ft | 430 kts | 34° |
| 2026-04-12 11:38 | 34.17642 | 77.45602 | 15325 ft | 425 kts | 83° |
| 2026-04-12 11:38 | 34.17214 | 77.48993 | 14875 ft | 416 kts | 134° |
| 2026-04-12 11:38 | 34.15120 | 77.51246 | 14776 ft | 404 kts | 139° |
| 2026-04-12 11:38 | 34.13130 | 77.53709 | 14239 ft | 414 kts | 115° |
| 2026-04-12 11:39 | 34.12154 | 77.56780 | 15156 ft | 368 kts | 83° |
| 2026-04-12 11:39 | 34.12474 | 77.59504 | 16156 ft | 312 kts | 43° |
| 2026-04-12 11:39 | 34.13895 | 77.61265 | 16131 ft | 285 kts | 11° |
| 2026-04-12 11:39 | 34.15757 | 77.61926 | 15678 ft | 282 kts | 342° |
| 2026-04-12 11:40 | 34.17655 | 77.61259 | 14774 ft | 295 kts | 308° |
| 2026-04-12 11:40 | 34.18949 | 77.59373 | 14399 ft | 292 kts | 275° |
| 2026-04-12 11:40 | 34.19219 | 77.57030 | 14830 ft | 272 kts | 260° |
| 2026-04-12 11:40 | 34.18967 | 77.54741 | 15337 ft | 282 kts | 265° |
| 2026-04-12 11:41 | 34.18819 | 77.52352 | 15678 ft | 301 kts | 268° |
| 2026-04-12 11:41 | 34.18802 | 77.49695 | 15646 ft | 335 kts | 272° |
| 2026-04-12 11:41 | 34.18894 | 77.46698 | 15285 ft | 381 kts | 273° |
| 2026-04-12 11:41 | 34.19029 | 77.43306 | 14866 ft | 427 kts | 273° |
| 2026-04-12 11:42 | 34.19373 | 77.39593 | 14615 ft | 464 kts | 283° |
| 2026-04-12 11:42 | 34.20281 | 77.35751 | 14818 ft | 481 kts | 290° |
| 2026-04-12 11:42 | 34.21469 | 77.32047 | 15853 ft | 454 kts | 293° |
| 2026-04-12 11:43 | 34.24026 | 77.25694 | 17378 ft | 391 kts | 297° |
| 2026-04-12 11:43 | 34.25316 | 77.22984 | 18267 ft | 362 kts | 295° |
| 2026-04-12 11:43 | 34.26490 | 77.20411 | 18892 ft | 344 kts | 297° |
| 2026-04-12 11:43 | 34.27619 | 77.17810 | 18894 ft | 362 kts | 294° |
| 2026-04-12 11:44 | 34.28084 | 77.14797 | 18633 ft | 377 kts | 244° |
| 2026-04-12 11:44 | 34.26188 | 77.12835 | 18121 ft | 397 kts | 175° |
| 2026-04-12 11:44 | 34.23704 | 77.14482 | 16364 ft | 462 kts | 120° |
| 2026-04-12 11:44 | 34.22185 | 77.18090 | 15575 ft | 494 kts | 107° |
| 2026-04-12 11:45 | 34.21024 | 77.22025 | 15082 ft | 503 kts | 110° |
| 2026-04-12 11:45 | 34.19848 | 77.25909 | 14465 ft | 487 kts | 111° |
| 2026-04-12 11:45 | 34.18701 | 77.29567 | 13922 ft | 444 kts | 115° |
| 2026-04-12 11:45 | 34.17400 | 77.32698 | 13685 ft | 389 kts | 128° |
| 2026-04-12 11:46 | 34.15917 | 77.35189 | 13575 ft | 346 kts | 129° |
| 2026-04-12 11:46 | 34.14626 | 77.37473 | 13235 ft | 312 kts | 115° |
| 2026-04-12 11:46 | 34.13757 | 77.39735 | 12906 ft | 283 kts | 116° |
| 2026-04-12 11:46 | 34.12968 | 77.41884 | 12711 ft | 286 kts | 114° |
| 2026-04-12 11:47 | 34.12214 | 77.44139 | 12463 ft | 291 kts | 108° |
| 2026-04-12 11:47 | 34.11759 | 77.46468 | 11951 ft | 286 kts | 93° |
| 2026-04-12 11:47 | 34.11870 | 77.48914 | 11187 ft | 308 kts | 66° |
| 2026-04-12 11:47 | 34.12677 | 77.51307 | 10970 ft | 308 kts | 70° |
| 2026-04-12 11:48 | 34.13320 | 77.53757 | 10635 ft | 297 kts | 67° |
| 2026-04-12 11:48 | 34.13919 | 77.55585 | 10798 ft | 183 kts | 63° |
| 2026-04-12 11:48 | 34.14087 | 77.56538 | 10886 ft | 0 kts | 121° |
| 2026-04-12 11:48 | 34.14087 | 77.56536 | 10884 ft | 0 kts | 124° |